sensor_id;sensor_type;location;lat;lon;timestamp;pressure;altitude;pressure_sealevel;temperature;humidity
65557;BME280;52200;53.490;14.376;2024-02-14T00:01:39;101673.94;;;4.03;84.31
65557;BME280;52200;53.490;14.376;2024-02-14T00:04:05;101668.19;;;4.09;84.41
65557;BME280;52200;53.490;14.376;2024-02-14T00:06:35;101677.06;;;3.88;84.57
65557;BME280;52200;53.490;14.376;2024-02-14T00:09:01;101673.34;;;3.66;85.34
65557;BME280;52200;53.490;14.376;2024-02-14T00:11:26;101682.00;;;3.83;85.60
65557;BME280;52200;53.490;14.376;2024-02-14T00:13:52;101671.72;;;3.68;85.75
65557;BME280;52200;53.490;14.376;2024-02-14T00:16:17;101673.09;;;3.50;85.80
65557;BME280;52200;53.490;14.376;2024-02-14T00:18:43;101671.59;;;3.62;85.82
65557;BME280;52200;53.490;14.376;2024-02-14T00:21:08;101669.06;;;3.60;85.42
65557;BME280;52200;53.490;14.376;2024-02-14T00:23:34;101674.16;;;3.65;85.27
65557;BME280;52200;53.490;14.376;2024-02-14T00:25:59;101683.25;;;3.57;85.33
65557;BME280;52200;53.490;14.376;2024-02-14T00:28:25;101678.47;;;3.25;87.02
65557;BME280;52200;53.490;14.376;2024-02-14T00:30:52;101684.84;;;3.09;88.25
65557;BME280;52200;53.490;14.376;2024-02-14T00:33:17;101681.41;;;3.03;88.62
65557;BME280;52200;53.490;14.376;2024-02-14T00:35:45;101683.63;;;2.89;89.10
65557;BME280;52200;53.490;14.376;2024-02-14T00:38:11;101687.00;;;2.92;89.73
65557;BME280;52200;53.490;14.376;2024-02-14T00:40:36;101694.38;;;2.84;89.96
65557;BME280;52200;53.490;14.376;2024-02-14T00:43:02;101693.53;;;2.83;89.58
65557;BME280;52200;53.490;14.376;2024-02-14T00:45:27;101683.78;;;2.97;88.98
65557;BME280;52200;53.490;14.376;2024-02-14T00:47:52;101683.78;;;2.97;89.48
65557;BME280;52200;53.490;14.376;2024-02-14T00:50:18;101686.19;;;2.91;89.29
65557;BME280;52200;53.490;14.376;2024-02-14T00:52:44;101691.44;;;3.03;88.59
65557;BME280;52200;53.490;14.376;2024-02-14T00:55:09;101691.63;;;3.14;88.03
65557;BME280;52200;53.490;14.376;2024-02-14T00:57:35;101692.34;;;3.07;88.25
65557;BME280;52200;53.490;14.376;2024-02-14T01:00:00;101689.78;;;3.05;87.68
65557;BME280;52200;53.490;14.376;2024-02-14T01:02:26;101680.28;;;2.51;89.19
65557;BME280;52200;53.490;14.376;2024-02-14T01:04:52;101681.28;;;2.57;88.55
65557;BME280;52200;53.490;14.376;2024-02-14T01:07:17;101682.41;;;2.70;89.38
65557;BME280;52200;53.490;14.376;2024-02-14T01:09:43;101682.78;;;2.49;88.42
65557;BME280;52200;53.490;14.376;2024-02-14T01:12:08;101680.47;;;2.58;88.06
65557;BME280;52200;53.490;14.376;2024-02-14T01:14:34;101677.47;;;2.00;89.39
65557;BME280;52200;53.490;14.376;2024-02-14T01:16:59;101682.06;;;2.18;89.63
65557;BME280;52200;53.490;14.376;2024-02-14T01:19:25;101674.84;;;2.31;90.18
65557;BME280;52200;53.490;14.376;2024-02-14T01:21:54;101681.81;;;2.07;89.67
65557;BME280;52200;53.490;14.376;2024-02-14T01:24:19;101678.50;;;2.08;90.42
65557;BME280;52200;53.490;14.376;2024-02-14T01:26:44;101680.38;;;2.17;91.00
65557;BME280;52200;53.490;14.376;2024-02-14T01:29:10;101677.47;;;1.67;91.73
65557;BME280;52200;53.490;14.376;2024-02-14T01:31:35;101674.78;;;1.92;91.80
65557;BME280;52200;53.490;14.376;2024-02-14T01:34:01;101668.38;;;2.05;91.18
65557;BME280;52200;53.490;14.376;2024-02-14T01:36:28;101670.97;;;2.08;90.57
65557;BME280;52200;53.490;14.376;2024-02-14T01:38:54;101662.75;;;1.79;91.54
65557;BME280;52200;53.490;14.376;2024-02-14T01:41:19;101666.00;;;1.75;92.11
65557;BME280;52200;53.490;14.376;2024-02-14T01:43:46;101660.84;;;1.69;92.58
65557;BME280;52200;53.490;14.376;2024-02-14T01:46:12;101654.94;;;1.67;91.25
65557;BME280;52200;53.490;14.376;2024-02-14T01:48:38;101655.66;;;1.61;91.62
65557;BME280;52200;53.490;14.376;2024-02-14T01:51:05;101663.34;;;1.37;92.08
65557;BME280;52200;53.490;14.376;2024-02-14T01:53:35;101667.78;;;1.47;93.64
65557;BME280;52200;53.490;14.376;2024-02-14T01:56:01;101658.53;;;1.78;92.44
65557;BME280;52200;53.490;14.376;2024-02-14T01:58:28;101663.25;;;1.66;91.72
65557;BME280;52200;53.490;14.376;2024-02-14T02:00:55;101664.09;;;1.65;92.14
65557;BME280;52200;53.490;14.376;2024-02-14T02:03:25;101659.22;;;1.71;91.84
65557;BME280;52200;53.490;14.376;2024-02-14T02:05:54;101655.22;;;1.77;91.32
65557;BME280;52200;53.490;14.376;2024-02-14T02:08:20;101657.88;;;1.84;91.94
65557;BME280;52200;53.490;14.376;2024-02-14T02:10:46;101650.69;;;1.64;91.44
65557;BME280;52200;53.490;14.376;2024-02-14T02:13:12;101655.72;;;1.64;92.49
65557;BME280;52200;53.490;14.376;2024-02-14T02:15:38;101660.44;;;1.53;92.20
65557;BME280;52200;53.490;14.376;2024-02-14T02:18:04;101656.66;;;1.36;92.91
65557;BME280;52200;53.490;14.376;2024-02-14T02:20:32;101662.59;;;1.39;92.60
65557;BME280;52200;53.490;14.376;2024-02-14T02:22:58;101660.66;;;0.99;92.61
65557;BME280;52200;53.490;14.376;2024-02-14T02:25:24;101653.81;;;1.23;93.25
65557;BME280;52200;53.490;14.376;2024-02-14T02:27:52;101654.63;;;1.22;93.70
65557;BME280;52200;53.490;14.376;2024-02-14T02:30:18;101649.44;;;1.16;92.60
65557;BME280;52200;53.490;14.376;2024-02-14T02:32:44;101650.41;;;0.89;92.44
65557;BME280;52200;53.490;14.376;2024-02-14T02:35:09;101648.53;;;0.82;94.47
65557;BME280;52200;53.490;14.376;2024-02-14T02:37:35;101647.38;;;0.71;95.26
65557;BME280;52200;53.490;14.376;2024-02-14T02:40:01;101647.63;;;0.80;96.63
65557;BME280;52200;53.490;14.376;2024-02-14T02:42:26;101652.81;;;0.86;96.21
65557;BME280;52200;53.490;14.376;2024-02-14T02:44:52;101657.41;;;0.72;95.77
65557;BME280;52200;53.490;14.376;2024-02-14T02:47:18;101659.50;;;0.87;96.27
65557;BME280;52200;53.490;14.376;2024-02-14T02:49:44;101659.06;;;1.01;95.81
65557;BME280;52200;53.490;14.376;2024-02-14T02:52:10;101649.88;;;1.32;94.06
65557;BME280;52200;53.490;14.376;2024-02-14T02:54:37;101643.44;;;1.09;93.83
65557;BME280;52200;53.490;14.376;2024-02-14T02:57:09;101642.56;;;1.09;93.94
65557;BME280;52200;53.490;14.376;2024-02-14T02:59:35;101640.53;;;1.26;93.53
65557;BME280;52200;53.490;14.376;2024-02-14T03:02:01;101632.06;;;0.90;93.48
65557;BME280;52200;53.490;14.376;2024-02-14T03:04:27;101646.31;;;1.23;93.68
65557;BME280;52200;53.490;14.376;2024-02-14T03:06:52;101643.81;;;1.23;93.52
65557;BME280;52200;53.490;14.376;2024-02-14T03:09:18;101642.16;;;0.93;93.78
65557;BME280;52200;53.490;14.376;2024-02-14T03:11:47;101652.19;;;0.93;94.72
65557;BME280;52200;53.490;14.376;2024-02-14T03:14:13;101640.50;;;0.94;94.92
65557;BME280;52200;53.490;14.376;2024-02-14T03:16:39;101646.63;;;1.04;94.61
65557;BME280;52200;53.490;14.376;2024-02-14T03:19:04;101641.06;;;0.84;95.22
65557;BME280;52200;53.490;14.376;2024-02-14T03:21:33;101638.28;;;1.03;95.90
65557;BME280;52200;53.490;14.376;2024-02-14T03:24:03;101640.81;;;0.74;96.02
65557;BME280;52200;53.490;14.376;2024-02-14T03:26:31;101645.06;;;0.77;97.27
65557;BME280;52200;53.490;14.376;2024-02-14T03:29:03;101637.84;;;0.88;97.31
65557;BME280;52200;53.490;14.376;2024-02-14T03:31:31;101639.97;;;0.75;97.92
65557;BME280;52200;53.490;14.376;2024-02-14T03:33:57;101646.72;;;0.78;98.18
65557;BME280;52200;53.490;14.376;2024-02-14T03:36:23;101649.16;;;0.75;98.30
65557;BME280;52200;53.490;14.376;2024-02-14T03:38:49;101639.88;;;0.71;97.69
65557;BME280;52200;53.490;14.376;2024-02-14T03:41:15;101645.31;;;0.86;97.63
65557;BME280;52200;53.490;14.376;2024-02-14T03:43:40;101644.41;;;0.84;97.92
65557;BME280;52200;53.490;14.376;2024-02-14T03:46:06;101647.72;;;0.83;98.30
65557;BME280;52200;53.490;14.376;2024-02-14T03:48:31;101644.91;;;0.72;98.63
65557;BME280;52200;53.490;14.376;2024-02-14T03:50:57;101645.22;;;0.83;98.65
65557;BME280;52200;53.490;14.376;2024-02-14T03:53:23;101645.22;;;0.83;99.04
65557;BME280;52200;53.490;14.376;2024-02-14T03:55:48;101636.38;;;0.94;98.27
65557;BME280;52200;53.490;14.376;2024-02-14T03:58:14;101636.38;;;0.94;96.91
65557;BME280;52200;53.490;14.376;2024-02-14T04:00:42;101639.47;;;0.86;97.98
65557;BME280;52200;53.490;14.376;2024-02-14T04:03:12;101630.63;;;0.99;97.18
65557;BME280;52200;53.490;14.376;2024-02-14T04:05:37;101626.25;;;0.91;96.94
65557;BME280;52200;53.490;14.376;2024-02-14T04:08:03;101630.47;;;0.92;96.20
65557;BME280;52200;53.490;14.376;2024-02-14T04:10:29;101628.44;;;1.09;96.35
65557;BME280;52200;53.490;14.376;2024-02-14T04:12:54;101625.03;;;1.07;95.43
65557;BME280;52200;53.490;14.376;2024-02-14T04:15:20;101631.72;;;1.08;95.11
65557;BME280;52200;53.490;14.376;2024-02-14T04:17:45;101630.81;;;0.74;95.15
65557;BME280;52200;53.490;14.376;2024-02-14T04:20:11;101631.81;;;0.81;96.17
65557;BME280;52200;53.490;14.376;2024-02-14T04:22:36;101633.88;;;0.94;96.23
65557;BME280;52200;53.490;14.376;2024-02-14T04:25:02;101628.09;;;0.97;95.00
65557;BME280;52200;53.490;14.376;2024-02-14T04:27:27;101622.69;;;1.13;94.48
65557;BME280;52200;53.490;14.376;2024-02-14T04:29:53;101625.31;;;1.18;94.09
65557;BME280;52200;53.490;14.376;2024-02-14T04:32:19;101624.72;;;0.96;94.73
65557;BME280;52200;53.490;14.376;2024-02-14T04:34:45;101627.31;;;1.00;95.20
65557;BME280;52200;53.490;14.376;2024-02-14T04:37:10;101634.16;;;0.75;95.00
65557;BME280;52200;53.490;14.376;2024-02-14T04:39:39;101623.59;;;0.85;94.63
65557;BME280;52200;53.490;14.376;2024-02-14T04:42:04;101625.91;;;1.08;94.70
65557;BME280;52200;53.490;14.376;2024-02-14T04:44:31;101622.72;;;0.83;93.92
65557;BME280;52200;53.490;14.376;2024-02-14T04:46:57;101619.34;;;0.83;95.66
65557;BME280;52200;53.490;14.376;2024-02-14T04:49:29;101628.53;;;0.82;95.97
65557;BME280;52200;53.490;14.376;2024-02-14T04:51:55;101616.88;;;0.84;96.44
65557;BME280;52200;53.490;14.376;2024-02-14T04:54:20;101621.88;;;0.84;96.61
65557;BME280;52200;53.490;14.376;2024-02-14T04:56:46;101621.22;;;0.90;96.63
65557;BME280;52200;53.490;14.376;2024-02-14T04:59:12;101618.09;;;0.97;97.40
65557;BME280;52200;53.490;14.376;2024-02-14T05:01:38;101615.28;;;0.86;97.01
65557;BME280;52200;53.490;14.376;2024-02-14T05:04:08;101619.00;;;0.70;97.78
65557;BME280;52200;53.490;14.376;2024-02-14T05:06:33;101611.81;;;0.81;98.78
65557;BME280;52200;53.490;14.376;2024-02-14T05:08:59;101607.47;;;0.75;98.19
65557;BME280;52200;53.490;14.376;2024-02-14T05:11:24;101605.69;;;0.71;98.66
65557;BME280;52200;53.490;14.376;2024-02-14T05:13:50;101606.09;;;0.85;98.37
65557;BME280;52200;53.490;14.376;2024-02-14T05:16:19;101603.75;;;0.91;98.39
65557;BME280;52200;53.490;14.376;2024-02-14T05:18:45;101604.72;;;0.96;97.67
65557;BME280;52200;53.490;14.376;2024-02-14T05:21:11;101605.63;;;0.99;97.12
65557;BME280;52200;53.490;14.376;2024-02-14T05:23:36;101615.88;;;1.08;97.48
65557;BME280;52200;53.490;14.376;2024-02-14T05:26:05;101611.25;;;0.91;97.60
65557;BME280;52200;53.490;14.376;2024-02-14T05:28:31;101607.31;;;1.00;98.33
65557;BME280;52200;53.490;14.376;2024-02-14T05:30:57;101612.66;;;1.12;97.71
65557;BME280;52200;53.490;14.376;2024-02-14T05:33:23;101611.66;;;1.05;97.87
65557;BME280;52200;53.490;14.376;2024-02-14T05:35:49;101604.50;;;1.19;97.23
65557;BME280;52200;53.490;14.376;2024-02-14T05:38:15;101603.84;;;1.26;96.84
65557;BME280;52200;53.490;14.376;2024-02-14T05:40:41;101600.25;;;1.17;97.25
65557;BME280;52200;53.490;14.376;2024-02-14T05:43:09;101596.22;;;1.22;97.10
65557;BME280;52200;53.490;14.376;2024-02-14T05:45:35;101594.56;;;1.22;96.65
65557;BME280;52200;53.490;14.376;2024-02-14T05:48:00;101593.09;;;1.31;96.93
65557;BME280;52200;53.490;14.376;2024-02-14T05:50:26;101586.84;;;1.15;96.69
65557;BME280;52200;53.490;14.376;2024-02-14T05:52:51;101588.53;;;1.14;97.56
65557;BME280;52200;53.490;14.376;2024-02-14T05:55:17;101589.38;;;1.16;97.00
65557;BME280;52200;53.490;14.376;2024-02-14T05:57:43;101588.69;;;1.20;97.67
65557;BME280;52200;53.490;14.376;2024-02-14T06:00:09;101585.19;;;1.15;96.97
65557;BME280;52200;53.490;14.376;2024-02-14T06:02:36;101581.84;;;1.15;97.27
65557;BME280;52200;53.490;14.376;2024-02-14T06:05:01;101577.78;;;1.18;97.34
65557;BME280;52200;53.490;14.376;2024-02-14T06:07:27;101576.06;;;1.17;97.11
65557;BME280;52200;53.490;14.376;2024-02-14T06:09:53;101580.00;;;1.07;97.71
65557;BME280;52200;53.490;14.376;2024-02-14T06:12:19;101576.63;;;1.05;97.49
65557;BME280;52200;53.490;14.376;2024-02-14T06:14:48;101571.47;;;0.99;98.05
65557;BME280;52200;53.490;14.376;2024-02-14T06:17:14;101573.34;;;1.08;97.88
65557;BME280;52200;53.490;14.376;2024-02-14T06:19:39;101579.22;;;1.10;97.80
65557;BME280;52200;53.490;14.376;2024-02-14T06:22:05;101576.06;;;1.17;98.51
65557;BME280;52200;53.490;14.376;2024-02-14T06:24:30;101584.84;;;1.35;97.80
65557;BME280;52200;53.490;14.376;2024-02-14T06:26:55;101588.25;;;1.37;97.32
65557;BME280;52200;53.490;14.376;2024-02-14T06:29:21;101578.56;;;1.49;96.56
65557;BME280;52200;53.490;14.376;2024-02-14T06:31:46;101584.25;;;1.43;96.50
65557;BME280;52200;53.490;14.376;2024-02-14T06:34:12;101581.72;;;1.42;96.22
65557;BME280;52200;53.490;14.376;2024-02-14T06:36:38;101584.47;;;1.53;96.47
65557;BME280;52200;53.490;14.376;2024-02-14T06:39:04;101583.56;;;1.49;96.71
65557;BME280;52200;53.490;14.376;2024-02-14T06:41:31;101584.25;;;1.43;96.63
65557;BME280;52200;53.490;14.376;2024-02-14T06:43:57;101590.63;;;1.66;96.19
65557;BME280;52200;53.490;14.376;2024-02-14T06:46:23;101597.34;;;1.67;96.07
65557;BME280;52200;53.490;14.376;2024-02-14T06:48:48;101592.16;;;1.60;96.18
65557;BME280;52200;53.490;14.376;2024-02-14T06:51:13;101589.66;;;1.60;96.16
65557;BME280;52200;53.490;14.376;2024-02-14T06:53:39;101598.69;;;1.89;95.46
65557;BME280;52200;53.490;14.376;2024-02-14T06:56:05;101591.34;;;1.97;95.34
65557;BME280;52200;53.490;14.376;2024-02-14T06:58:30;101591.44;;;2.00;94.65
65557;BME280;52200;53.490;14.376;2024-02-14T07:00:56;101593.91;;;1.98;94.80
65557;BME280;52200;53.490;14.376;2024-02-14T07:03:21;101599.56;;;1.89;95.76
65557;BME280;52200;53.490;14.376;2024-02-14T07:05:47;101595.72;;;2.05;94.71
65557;BME280;52200;53.490;14.376;2024-02-14T07:08:12;101601.66;;;2.09;94.66
65557;BME280;52200;53.490;14.376;2024-02-14T07:10:37;101602.78;;;2.22;94.09
65557;BME280;52200;53.490;14.376;2024-02-14T07:13:03;101603.69;;;2.25;93.53
65557;BME280;52200;53.490;14.376;2024-02-14T07:15:28;101606.22;;;2.27;94.11
65557;BME280;52200;53.490;14.376;2024-02-14T07:17:55;101606.41;;;2.36;93.11
65557;BME280;52200;53.490;14.376;2024-02-14T07:20:21;101611.06;;;2.57;92.93
65557;BME280;52200;53.490;14.376;2024-02-14T07:22:47;101601.19;;;2.65;92.90
65557;BME280;52200;53.490;14.376;2024-02-14T07:25:13;101595.13;;;2.55;92.27
65557;BME280;52200;53.490;14.376;2024-02-14T07:27:39;101599.72;;;2.75;92.38
65557;BME280;52200;53.490;14.376;2024-02-14T07:30:05;101603.31;;;2.89;91.74
65557;BME280;52200;53.490;14.376;2024-02-14T07:32:31;101596.91;;;2.61;91.32
65557;BME280;52200;53.490;14.376;2024-02-14T07:34:56;101589.59;;;2.72;91.72
65557;BME280;52200;53.490;14.376;2024-02-14T07:37:22;101586.22;;;2.70;91.97
65557;BME280;52200;53.490;14.376;2024-02-14T07:39:47;101585.59;;;2.82;91.37
65557;BME280;52200;53.490;14.376;2024-02-14T07:42:13;101588.22;;;2.86;91.54
65557;BME280;52200;53.490;14.376;2024-02-14T07:44:39;101582.50;;;2.95;91.34
65557;BME280;52200;53.490;14.376;2024-02-14T07:47:04;101586.50;;;2.85;91.75
65557;BME280;52200;53.490;14.376;2024-02-14T07:49:30;101586.75;;;2.55;92.75
65557;BME280;52200;53.490;14.376;2024-02-14T07:51:56;101582.19;;;2.78;92.76
65557;BME280;52200;53.490;14.376;2024-02-14T07:54:21;101581.34;;;2.78;91.86
65557;BME280;52200;53.490;14.376;2024-02-14T07:56:47;101577.97;;;2.77;92.94
65557;BME280;52200;53.490;14.376;2024-02-14T07:59:12;101574.84;;;2.87;93.03
65557;BME280;52200;53.490;14.376;2024-02-14T08:01:37;101584.69;;;2.78;93.73
65557;BME280;52200;53.490;14.376;2024-02-14T08:04:03;101572.28;;;2.84;93.65
65557;BME280;52200;53.490;14.376;2024-02-14T08:06:30;101580.84;;;2.96;93.80
65557;BME280;52200;53.490;14.376;2024-02-14T08:08:55;101567.34;;;2.89;94.04
65557;BME280;52200;53.490;14.376;2024-02-14T08:11:27;101575.19;;;3.06;94.17
65557;BME280;52200;53.490;14.376;2024-02-14T08:13:52;101583.78;;;3.20;93.81
65557;BME280;52200;53.490;14.376;2024-02-14T08:16:17;101574.81;;;3.33;94.07
65557;BME280;52200;53.490;14.376;2024-02-14T08:18:43;101577.75;;;3.60;93.55
65557;BME280;52200;53.490;14.376;2024-02-14T08:21:13;101578.13;;;3.31;93.31
65557;BME280;52200;53.490;14.376;2024-02-14T08:23:39;101573.09;;;3.29;94.11
65557;BME280;52200;53.490;14.376;2024-02-14T08:26:06;101579.03;;;3.34;94.39
65557;BME280;52200;53.490;14.376;2024-02-14T08:28:38;101578.38;;;3.46;94.32
65557;BME280;52200;53.490;14.376;2024-02-14T08:31:11;101582.84;;;3.63;95.19
65557;BME280;52200;53.490;14.376;2024-02-14T08:33:37;101580.66;;;3.86;94.07
65557;BME280;52200;53.490;14.376;2024-02-14T08:36:03;101582.38;;;3.88;94.16
65557;BME280;52200;53.490;14.376;2024-02-14T08:38:29;101582.19;;;3.76;93.18
65557;BME280;52200;53.490;14.376;2024-02-14T08:40:55;101573.72;;;3.69;94.12
65557;BME280;52200;53.490;14.376;2024-02-14T08:43:20;101570.13;;;3.53;94.51
65557;BME280;52200;53.490;14.376;2024-02-14T08:45:45;101568.91;;;3.30;95.59
65557;BME280;52200;53.490;14.376;2024-02-14T08:48:11;101560.38;;;3.21;95.69
65557;BME280;52200;53.490;14.376;2024-02-14T08:50:36;101557.84;;;3.20;96.99
65557;BME280;52200;53.490;14.376;2024-02-14T08:53:02;101566.09;;;3.13;96.55
65557;BME280;52200;53.490;14.376;2024-02-14T08:55:28;101571.75;;;3.01;97.21
65557;BME280;52200;53.490;14.376;2024-02-14T08:57:54;101569.59;;;3.21;97.75
65557;BME280;52200;53.490;14.376;2024-02-14T09:00:19;101563.50;;;3.08;98.01
65557;BME280;52200;53.490;14.376;2024-02-14T09:02:46;101566.09;;;3.13;98.54
65557;BME280;52200;53.490;14.376;2024-02-14T09:05:14;101561.03;;;3.10;98.79
65557;BME280;52200;53.490;14.376;2024-02-14T09:07:42;101561.16;;;3.17;98.96
65557;BME280;52200;53.490;14.376;2024-02-14T09:10:07;101557.53;;;3.50;98.61
65557;BME280;52200;53.490;14.376;2024-02-14T09:12:33;101553.16;;;3.38;97.85
65557;BME280;52200;53.490;14.376;2024-02-14T09:14:59;101549.25;;;3.58;98.02
65557;BME280;52200;53.490;14.376;2024-02-14T09:17:24;101541.81;;;3.64;97.26
65557;BME280;52200;53.490;14.376;2024-02-14T09:19:49;101541.75;;;3.59;98.23
65557;BME280;52200;53.490;14.376;2024-02-14T09:22:16;101539.38;;;3.68;97.96
65557;BME280;52200;53.490;14.376;2024-02-14T09:24:49;101540.34;;;3.77;97.67
65557;BME280;52200;53.490;14.376;2024-02-14T09:27:15;101536.03;;;3.68;98.13
65557;BME280;52200;53.490;14.376;2024-02-14T09:29:41;101525.78;;;3.55;98.13
65557;BME280;52200;53.490;14.376;2024-02-14T09:32:06;101519.78;;;3.47;98.33
65557;BME280;52200;53.490;14.376;2024-02-14T09:34:32;101529.25;;;3.64;99.45
65557;BME280;52200;53.490;14.376;2024-02-14T09:36:57;101532.97;;;3.87;99.57
65557;BME280;52200;53.490;14.376;2024-02-14T09:39:24;101529.97;;;4.15;98.91
65557;BME280;52200;53.490;14.376;2024-02-14T09:41:54;101523.50;;;4.35;97.13
65557;BME280;52200;53.490;14.376;2024-02-14T09:44:27;101524.97;;;4.16;96.82
65557;BME280;52200;53.490;14.376;2024-02-14T09:46:54;101521.53;;;4.10;97.74
65557;BME280;52200;53.490;14.376;2024-02-14T09:49:21;101524.19;;;4.22;98.41
65557;BME280;52200;53.490;14.376;2024-02-14T09:51:48;101528.66;;;4.43;97.97
65557;BME280;52200;53.490;14.376;2024-02-14T09:54:17;101524.38;;;4.36;97.34
65557;BME280;52200;53.490;14.376;2024-02-14T09:56:52;101523.34;;;4.22;97.67
65557;BME280;52200;53.490;14.376;2024-02-14T09:59:22;101526.59;;;4.14;98.87
65557;BME280;52200;53.490;14.376;2024-02-14T10:01:48;101534.03;;;4.03;98.67
65557;BME280;52200;53.490;14.376;2024-02-14T10:04:16;101533.22;;;4.06;98.34
65557;BME280;52200;53.490;14.376;2024-02-14T10:06:43;101522.44;;;4.18;98.55
65557;BME280;52200;53.490;14.376;2024-02-14T10:09:08;101526.81;;;4.33;98.41
65557;BME280;52200;53.490;14.376;2024-02-14T10:11:35;101522.19;;;4.65;97.81
65557;BME280;52200;53.490;14.376;2024-02-14T10:14:01;101527.09;;;4.58;97.35
65557;BME280;52200;53.490;14.376;2024-02-14T10:16:29;101526.00;;;4.35;97.95
65557;BME280;52200;53.490;14.376;2024-02-14T10:18:54;101524.56;;;4.55;97.84
65557;BME280;52200;53.490;14.376;2024-02-14T10:21:21;101521.69;;;4.24;98.03
65557;BME280;52200;53.490;14.376;2024-02-14T10:23:47;101512.75;;;4.46;99.39
65557;BME280;52200;53.490;14.376;2024-02-14T10:26:15;101513.81;;;4.68;98.90
65557;BME280;52200;53.490;14.376;2024-02-14T10:28:44;101510.47;;;4.69;98.25
65557;BME280;52200;53.490;14.376;2024-02-14T10:31:12;101505.69;;;4.97;97.23
65557;BME280;52200;53.490;14.376;2024-02-14T10:33:39;101505.91;;;5.19;96.94
65557;BME280;52200;53.490;14.376;2024-02-14T10:36:07;101512.59;;;5.16;96.78
65557;BME280;52200;53.490;14.376;2024-02-14T10:38:34;101506.69;;;5.14;96.22
65557;BME280;52200;53.490;14.376;2024-02-14T10:41:01;101517.47;;;4.98;96.57
65557;BME280;52200;53.490;14.376;2024-02-14T10:43:27;101501.38;;;4.83;96.17
65557;BME280;52200;53.490;14.376;2024-02-14T10:45:56;101507.59;;;5.21;96.67
65557;BME280;52200;53.490;14.376;2024-02-14T10:48:24;101513.41;;;5.15;95.71
65557;BME280;52200;53.490;14.376;2024-02-14T10:50:54;101503.44;;;5.26;95.32
65557;BME280;52200;53.490;14.376;2024-02-14T10:53:21;101502.56;;;5.26;95.68
65557;BME280;52200;53.490;14.376;2024-02-14T10:55:48;101506.75;;;5.21;95.83
65557;BME280;52200;53.490;14.376;2024-02-14T10:58:23;101496.66;;;5.19;95.55
65557;BME280;52200;53.490;14.376;2024-02-14T11:00:49;101496.78;;;5.35;95.42
65557;BME280;52200;53.490;14.376;2024-02-14T11:03:17;101490.16;;;5.49;96.34
65557;BME280;52200;53.490;14.376;2024-02-14T11:05:44;101486.94;;;5.70;95.49
65557;BME280;52200;53.490;14.376;2024-02-14T11:08:13;101479.31;;;5.61;94.38
65557;BME280;52200;53.490;14.376;2024-02-14T11:10:39;101476.88;;;5.73;93.82
65557;BME280;52200;53.490;14.376;2024-02-14T11:13:10;101477.59;;;5.54;94.06
65557;BME280;52200;53.490;14.376;2024-02-14T11:15:38;101475.81;;;5.37;94.74
65557;BME280;52200;53.490;14.376;2024-02-14T11:18:06;101478.44;;;5.56;95.18
65557;BME280;52200;53.490;14.376;2024-02-14T11:20:36;101477.63;;;5.60;95.43
65557;BME280;52200;53.490;14.376;2024-02-14T11:23:03;101478.59;;;5.85;94.36
65557;BME280;52200;53.490;14.376;2024-02-14T11:25:31;101472.00;;;6.07;94.92
65557;BME280;52200;53.490;14.376;2024-02-14T11:27:58;101480.28;;;5.86;94.99
65557;BME280;52200;53.490;14.376;2024-02-14T11:30:50;101469.50;;;6.10;94.68
65557;BME280;52200;53.490;14.376;2024-02-14T11:33:16;101467.91;;;6.34;93.15
65557;BME280;52200;53.490;14.376;2024-02-14T11:35:44;101461.13;;;6.21;93.50
65557;BME280;52200;53.490;14.376;2024-02-14T11:38:10;101461.13;;;6.18;93.10
65557;BME280;52200;53.490;14.376;2024-02-14T11:40:36;101447.69;;;6.23;92.82
65557;BME280;52200;53.490;14.376;2024-02-14T11:43:05;101455.19;;;6.02;92.70
65557;BME280;52200;53.490;14.376;2024-02-14T11:45:32;101445.97;;;6.05;92.95
65557;BME280;52200;53.490;14.376;2024-02-14T11:47:57;101446.84;;;6.21;92.72
65557;BME280;52200;53.490;14.376;2024-02-14T11:50:23;101451.09;;;6.38;92.21
65557;BME280;52200;53.490;14.376;2024-02-14T11:52:48;101449.38;;;6.31;90.91
65557;BME280;52200;53.490;14.376;2024-02-14T11:55:17;101464.50;;;6.23;91.86
65557;BME280;52200;53.490;14.376;2024-02-14T11:57:43;101454.44;;;6.38;91.70
65557;BME280;52200;53.490;14.376;2024-02-14T12:00:08;101458.72;;;6.55;90.39
65557;BME280;52200;53.490;14.376;2024-02-14T12:02:34;101451.06;;;6.33;89.66
65557;BME280;52200;53.490;14.376;2024-02-14T12:05:01;101446.78;;;6.07;90.26
65557;BME280;52200;53.490;14.376;2024-02-14T12:07:30;101458.53;;;6.02;91.52
65557;BME280;52200;53.490;14.376;2024-02-14T12:09:56;101447.69;;;6.25;90.90
65557;BME280;52200;53.490;14.376;2024-02-14T12:12:22;101450.22;;;6.37;90.50
65557;BME280;52200;53.490;14.376;2024-02-14T12:14:51;101453.66;;;6.55;88.89
65557;BME280;52200;53.490;14.376;2024-02-14T12:17:17;101441.88;;;6.54;89.69
65557;BME280;52200;53.490;14.376;2024-02-14T12:19:47;101442.72;;;6.53;88.69
65557;BME280;52200;53.490;14.376;2024-02-14T12:22:15;101448.59;;;6.42;89.54
65557;BME280;52200;53.490;14.376;2024-02-14T12:24:46;101453.59;;;6.30;89.60
65557;BME280;52200;53.490;14.376;2024-02-14T12:27:17;101453.66;;;6.55;90.05
65557;BME280;52200;53.490;14.376;2024-02-14T12:29:45;101451.91;;;6.29;90.25
65557;BME280;52200;53.490;14.376;2024-02-14T12:32:11;101455.25;;;6.22;91.29
65557;BME280;52200;53.490;14.376;2024-02-14T12:34:37;101452.75;;;6.28;91.22
65557;BME280;52200;53.490;14.376;2024-02-14T12:37:03;101447.66;;;6.19;90.36
65557;BME280;52200;53.490;14.376;2024-02-14T12:39:29;101445.88;;;5.96;92.07
65557;BME280;52200;53.490;14.376;2024-02-14T12:41:55;101438.25;;;5.85;91.42
65557;BME280;52200;53.490;14.376;2024-02-14T12:44:20;101435.72;;;5.82;92.12
65557;BME280;52200;53.490;14.376;2024-02-14T12:46:46;101439.81;;;5.61;92.73